Time;durP1;ratioP1;P1;durP2;ratioP2;P2;SDS_P1;SDS_P2;PMS_P1;PMS_P2;Temp;Humidity;BMP_temperature;BMP_pressure;BME280_temperature;BME280_humidity;BME280_pressure;Samples;Min_cycle;Max_cycle;Signal;HPM_P1;HPM_P2
2023/11/29 00:00:29;;;;;;;27.15;16.83;;;;;;;3.61;100.00;99898.97;5019352;28;20029;-71
2023/11/29 00:02:55;;;;;;;26.83;16.85;;;;;;;3.56;100.00;99902.47;5018959;28;20037;-71
2023/11/29 00:05:20;;;;;;;26.77;17.05;;;;;;;3.52;100.00;99901.38;5019233;28;20026;-71
2023/11/29 00:07:45;;;;;;;25.83;16.52;;;;;;;3.52;100.00;99895.88;4983515;28;20557;-71
2023/11/29 00:10:11;;;;;;;30.50;16.67;;;;;;;3.48;100.00;99881.03;5015489;28;20438;-71
2023/11/29 00:12:37;;;;;;;24.92;16.77;;;;;;;3.46;100.00;99882.38;5018985;28;20040;-71
2023/11/29 00:15:04;;;;;;;29.08;16.77;;;;;;;3.39;100.00;99876.28;5014506;28;20056;-71
2023/11/29 00:17:29;;;;;;;26.02;16.08;;;;;;;3.37;100.00;99873.78;5035146;28;20048;-71
2023/11/29 00:19:56;;;;;;;25.65;16.75;;;;;;;3.35;100.00;99865.81;5008951;28;20037;-71
2023/11/29 00:22:21;;;;;;;26.90;17.00;;;;;;;3.35;100.00;99867.75;5025624;28;20068;-71
2023/11/29 00:24:46;;;;;;;27.38;17.02;;;;;;;3.30;100.00;99863.03;4982986;28;20253;-71
2023/11/29 00:27:16;;;;;;;24.77;16.85;;;;;;;3.25;100.00;99860.25;5043811;28;20041;-71
2023/11/29 00:29:41;;;;;;;25.15;16.25;;;;;;;3.22;100.00;99859.94;5015325;28;20226;-71
2023/11/29 00:32:06;;;;;;;26.10;17.02;;;;;;;3.16;100.00;99850.84;5025690;28;20040;-70
2023/11/29 00:34:32;;;;;;;27.50;16.92;;;;;;;3.18;100.00;99845.94;5018976;28;20478;-71
2023/11/29 00:36:58;;;;;;;24.45;16.58;;;;;;;3.10;100.00;99843.66;5015424;28;20036;-71
2023/11/29 00:39:23;;;;;;;23.88;16.25;;;;;;;3.04;100.00;99836.47;5018821;28;20025;-71
2023/11/29 00:41:49;;;;;;;25.67;16.65;;;;;;;3.05;100.00;99846.34;4999549;28;20030;-71
2023/11/29 00:44:14;;;;;;;22.23;16.50;;;;;;;3.01;100.00;99842.44;5042249;28;20032;-71
2023/11/29 00:46:40;;;;;;;27.35;17.60;;;;;;;2.95;100.00;99849.00;4991570;28;20104;-70
2023/11/29 00:49:05;;;;;;;26.27;16.83;;;;;;;2.94;100.00;99844.59;4999036;28;20026;-71
2023/11/29 00:51:31;;;;;;;27.30;18.52;;;;;;;2.86;100.00;99843.97;5018232;28;20030;-71
2023/11/29 00:53:56;;;;;;;24.90;16.83;;;;;;;2.84;100.00;99840.69;5002085;28;20029;-71
2023/11/29 00:56:22;;;;;;;26.48;16.88;;;;;;;2.80;100.00;99835.97;5018292;28;20037;-71
2023/11/29 00:58:47;;;;;;;25.80;16.98;;;;;;;2.82;100.00;99837.38;5018236;28;20032;-70
2023/11/29 01:01:13;;;;;;;30.45;17.83;;;;;;;2.76;100.00;99832.91;5006340;28;20088;-70
2023/11/29 01:03:38;;;;;;;25.80;16.30;;;;;;;2.74;100.00;99837.00;5005784;28;20082;-71
2023/11/29 01:06:04;;;;;;;23.73;16.30;;;;;;;2.75;100.00;99836.72;5026545;28;20398;-71
2023/11/29 01:08:29;;;;;;;25.23;15.82;;;;;;;2.69;100.00;99833.09;5005273;28;20100;-70
2023/11/29 01:10:55;;;;;;;25.40;16.00;;;;;;;2.67;100.00;99837.19;4986366;28;20037;-70
2023/11/29 01:13:21;;;;;;;23.50;15.88;;;;;;;2.65;100.00;99840.22;5002145;28;20398;-70
2023/11/29 01:15:47;;;;;;;23.80;15.93;;;;;;;2.67;100.00;99826.22;5012520;28;20026;-71
2023/11/29 01:18:14;;;;;;;23.58;15.63;;;;;;;2.67;100.00;99823.47;5002309;28;20526;-71
2023/11/29 01:20:41;;;;;;;23.17;15.65;;;;;;;2.66;100.00;99821.84;5015932;28;20028;-70
2023/11/29 01:23:06;;;;;;;24.17;15.15;;;;;;;2.63;100.00;99822.34;5005878;28;20075;-71
2023/11/29 01:25:32;;;;;;;22.55;14.85;;;;;;;2.65;100.00;99814.72;5028951;28;20473;-70
2023/11/29 01:27:57;;;;;;;20.92;14.50;;;;;;;2.65;100.00;99801.00;5008715;28;20029;-71
2023/11/29 01:30:23;;;;;;;22.60;14.52;;;;;;;2.67;100.00;99804.28;5025188;28;20030;-70
2023/11/29 01:32:48;;;;;;;23.38;14.63;;;;;;;2.63;100.00;99800.44;5021860;28;20033;-71
2023/11/29 01:35:14;;;;;;;21.88;15.00;;;;;;;2.60;100.00;99803.69;5021890;28;20029;-70
2023/11/29 01:37:39;;;;;;;21.95;14.70;;;;;;;2.59;100.00;99796.53;5038478;28;20025;-70
2023/11/29 01:40:07;;;;;;;22.33;15.68;;;;;;;2.59;100.00;99791.06;5024926;28;20025;-70
2023/11/29 01:42:32;;;;;;;23.27;14.77;;;;;;;2.56;100.00;99791.56;5012986;28;20051;-70
2023/11/29 01:44:58;;;;;;;21.38;14.93;;;;;;;2.54;100.00;99788.28;5008501;28;20026;-70
2023/11/29 01:47:23;;;;;;;21.85;14.25;;;;;;;2.54;100.00;99783.63;5021661;28;20026;-70
2023/11/29 01:49:49;;;;;;;21.85;14.98;;;;;;;2.52;100.00;99787.72;5005240;28;20033;-70
2023/11/29 01:52:15;;;;;;;22.45;15.32;;;;;;;2.51;100.00;99777.81;5001894;28;20109;-70
2023/11/29 01:54:41;;;;;;;22.95;14.20;;;;;;;2.49;100.00;99785.50;5002981;28;20038;-70
2023/11/29 01:57:07;;;;;;;25.13;15.63;;;;;;;2.47;100.00;99781.06;5021551;28;20079;-70
2023/11/29 01:59:32;;;;;;;22.60;14.73;;;;;;;2.41;100.00;99784.03;5035198;28;20065;-70
2023/11/29 02:01:57;;;;;;;20.67;14.70;;;;;;;2.43;100.00;99777.22;5001851;28;20041;-71
2023/11/29 02:04:23;;;;;;;21.80;14.73;;;;;;;2.40;100.00;99774.97;5018064;28;20030;-70
2023/11/29 02:06:48;;;;;;;20.90;14.77;;;;;;;2.36;100.00;99773.81;5031279;28;20034;-70
2023/11/29 02:09:14;;;;;;;21.98;14.50;;;;;;;2.36;100.00;99776.56;5030208;28;20033;-70
2023/11/29 02:11:39;;;;;;;23.88;15.48;;;;;;;2.37;100.00;99772.75;5020925;28;20040;-70
2023/11/29 02:14:08;;;;;;;22.17;14.90;;;;;;;2.33;100.00;99771.59;5002427;28;20033;-70
2023/11/29 02:16:34;;;;;;;21.48;14.18;;;;;;;2.37;100.00;99760.97;5015889;28;20076;-71
2023/11/29 02:18:59;;;;;;;21.50;14.68;;;;;;;2.30;100.00;99771.31;5037692;28;20030;-70
2023/11/29 02:21:25;;;;;;;26.20;14.98;;;;;;;2.30;100.00;99765.81;5050615;28;20033;-70
2023/11/29 02:24:00;;;;;;;22.77;14.35;;;;;;;2.31;100.00;99762.00;5037563;28;20074;-70
2023/11/29 02:26:27;;;;;;;21.83;14.68;;;;;;;2.26;100.00;99762.78;5041967;28;20037;-70
2023/11/29 02:28:53;;;;;;;20.40;14.15;;;;;;;2.29;100.00;99755.97;5003057;28;20037;-70
2023/11/29 02:31:18;;;;;;;21.83;13.82;;;;;;;2.23;100.00;99763.28;5037431;28;20026;-70
2023/11/29 02:33:44;;;;;;;21.17;14.15;;;;;;;2.18;100.00;99769.53;5018927;28;20453;-70
2023/11/29 02:36:09;;;;;;;22.95;14.45;;;;;;;2.14;100.00;99771.13;5020754;28;20390;-70
2023/11/29 02:38:35;;;;;;;21.30;14.50;;;;;;;2.16;100.00;99776.34;5004376;28;20076;-70
2023/11/29 02:41:00;;;;;;;20.15;14.27;;;;;;;2.11;100.00;99771.63;5037244;28;20048;-70
2023/11/29 02:43:26;;;;;;;21.52;13.23;;;;;;;2.07;100.00;99766.94;5004261;28;20021;-70
2023/11/29 02:45:51;;;;;;;18.80;13.82;;;;;;;2.06;100.00;99768.00;5020680;28;20029;-70
2023/11/29 02:48:17;;;;;;;22.52;14.02;;;;;;;2.00;100.00;99773.41;5023849;28;20049;-70
2023/11/29 02:50:43;;;;;;;19.85;13.88;;;;;;;2.03;100.00;99772.09;5036949;28;20052;-70
2023/11/29 02:53:08;;;;;;;20.27;13.77;;;;;;;1.98;100.00;99772.88;5002702;28;20113;-70
2023/11/29 02:55:34;;;;;;;21.02;13.75;;;;;;;1.97;100.00;99767.63;5003881;28;20036;-70
2023/11/29 02:58:00;;;;;;;20.05;13.55;;;;;;;1.93;100.00;99764.59;5020082;28;20547;-70
2023/11/29 03:00:26;;;;;;;19.10;13.63;;;;;;;1.95;100.00;99769.78;5004325;28;20033;-70
2023/11/29 03:02:51;;;;;;;22.40;14.20;;;;;;;1.88;100.00;99772.75;5003104;28;20036;-70
2023/11/29 03:05:17;;;;;;;21.02;13.30;;;;;;;1.89;100.00;99770.81;5023255;28;20079;-70
2023/11/29 03:07:42;;;;;;;18.55;13.18;;;;;;;1.87;100.00;99762.88;5036809;28;20040;-70
2023/11/29 03:10:08;;;;;;;20.67;14.23;;;;;;;1.89;100.00;99766.16;5019976;28;20051;-70
2023/11/29 03:12:33;;;;;;;21.90;14.20;;;;;;;1.89;100.00;99760.69;5003900;28;20025;-70
2023/11/29 03:14:59;;;;;;;23.00;13.80;;;;;;;1.82;100.00;99760.06;5019760;28;20033;-70
2023/11/29 03:17:24;;;;;;;17.30;13.35;;;;;;;1.79;100.00;99749.63;4999973;28;20046;-70
2023/11/29 03:19:50;;;;;;;19.83;13.02;;;;;;;1.82;100.00;99753.78;5036071;28;20037;-70
2023/11/29 03:22:15;;;;;;;18.02;12.77;;;;;;;1.77;100.00;99746.31;5035981;28;20025;-70
2023/11/29 03:24:41;;;;;;;19.35;12.80;;;;;;;1.73;100.00;99748.75;5000338;28;20057;-70
2023/11/29 03:27:06;;;;;;;18.33;12.68;;;;;;;1.72;100.00;99755.28;5016545;28;20033;-70
2023/11/29 03:29:31;;;;;;;20.10;13.20;;;;;;;1.70;100.00;99743.78;4999830;28;20045;-70
2023/11/29 03:31:57;;;;;;;18.27;12.93;;;;;;;1.70;100.00;99742.94;5019722;28;20474;-70
2023/11/29 03:34:23;;;;;;;18.83;12.68;;;;;;;1.69;100.00;99733.88;5036132;28;20080;-70
2023/11/29 03:36:48;;;;;;;17.42;12.32;;;;;;;1.69;100.00;99727.59;5016489;28;20033;-70
2023/11/29 03:39:14;;;;;;;17.25;11.43;;;;;;;1.64;100.00;99730.25;4999748;28;20092;-70
2023/11/29 03:41:39;;;;;;;19.70;12.93;;;;;;;1.65;100.00;99730.03;5036077;28;20064;-71
2023/11/29 03:44:05;;;;;;;18.15;12.52;;;;;;;1.65;100.00;99727.28;5003197;28;20437;-70
2023/11/29 03:46:30;;;;;;;18.30;12.02;;;;;;;1.64;100.00;99722.06;5019619;28;20036;-70
2023/11/29 03:48:56;;;;;;;15.98;11.38;;;;;;;1.61;100.00;99712.44;5019195;28;20038;-70
2023/11/29 03:51:21;;;;;;;16.83;11.93;;;;;;;1.64;100.00;99708.38;5036122;28;20033;-70
2023/11/29 03:53:47;;;;;;;19.60;11.90;;;;;;;1.57;100.00;99703.09;5003188;28;20033;-70
2023/11/29 03:56:12;;;;;;;16.98;11.63;;;;;;;1.54;100.00;99698.13;5019456;28;20033;-70
2023/11/29 03:58:38;;;;;;;16.67;11.68;;;;;;;1.54;100.00;99700.88;5015822;28;20022;-70
2023/11/29 04:01:03;;;;;;;16.08;11.18;;;;;;;1.55;100.00;99689.66;4996376;28;20037;-70
2023/11/29 04:03:29;;;;;;;15.07;11.05;;;;;;;1.52;100.00;99683.88;5004063;28;20025;-70
2023/11/29 04:05:54;;;;;;;15.15;11.68;;;;;;;1.47;100.00;99695.56;5035611;28;20390;-70
2023/11/29 04:08:20;;;;;;;16.55;11.88;;;;;;;1.46;100.00;99701.31;5015834;28;20033;-70
2023/11/29 04:10:45;;;;;;;14.18;10.95;;;;;;;1.41;100.00;99699.31;5007018;28;20026;-70
2023/11/29 04:13:11;;;;;;;14.57;10.60;;;;;;;1.39;100.00;99690.53;5007150;28;20116;-70
2023/11/29 04:15:36;;;;;;;16.40;10.85;;;;;;;1.39;100.00;99679.59;5038815;28;20029;-70
2023/11/29 04:18:02;;;;;;;14.98;11.00;;;;;;;1.38;100.00;99677.13;5016408;28;20526;-70
2023/11/29 04:20:27;;;;;;;14.38;9.80;;;;;;;1.32;100.00;99679.78;5002487;28;20112;-70
2023/11/29 04:22:53;;;;;;;13.98;10.23;;;;;;;1.31;100.00;99671.84;5018925;28;20029;-70
2023/11/29 04:25:19;;;;;;;14.75;9.98;;;;;;;1.33;100.00;99670.50;4999395;28;20026;-70
2023/11/29 04:27:44;;;;;;;13.40;10.27;;;;;;;1.37;100.00;99670.84;4997842;28;20029;-70
2023/11/29 04:30:10;;;;;;;14.90;10.60;;;;;;;1.30;100.00;99670.19;5011276;28;20028;-70
2023/11/29 04:32:36;;;;;;;18.95;10.73;;;;;;;1.30;100.00;99657.31;5013748;28;20560;-70
2023/11/29 04:35:03;;;;;;;14.68;10.88;;;;;;;1.29;100.00;99674.00;5009262;28;20036;-70
2023/11/29 04:37:28;;;;;;;14.90;10.23;;;;;;;1.27;100.00;99667.94;5002925;28;20453;-70
2023/11/29 04:39:54;;;;;;;14.07;10.85;;;;;;;1.26;100.00;99669.03;5002410;28;20033;-70
2023/11/29 04:42:19;;;;;;;12.82;10.05;;;;;;;1.24;100.00;99668.47;5018495;28;20029;-70
2023/11/29 04:44:45;;;;;;;15.13;10.48;;;;;;;1.26;100.00;99671.78;4998880;28;20064;-70
2023/11/29 04:47:10;;;;;;;14.63;9.98;;;;;;;1.29;100.00;99668.53;5002302;28;20030;-70
2023/11/29 04:49:36;;;;;;;13.10;9.70;;;;;;;1.24;100.00;99669.28;5034981;28;20037;-70
2023/11/29 04:52:01;;;;;;;15.35;10.80;;;;;;;1.26;100.00;99658.94;5002085;28;20167;-70
2023/11/29 04:54:27;;;;;;;14.93;9.85;;;;;;;1.24;100.00;99663.00;5035177;28;20021;-70
2023/11/29 04:56:52;;;;;;;14.18;10.02;;;;;;;1.24;100.00;99661.06;5035968;28;20033;-70
2023/11/29 04:59:18;;;;;;;13.38;9.73;;;;;;;1.27;100.00;99659.75;5034749;28;20366;-70
2023/11/29 05:01:43;;;;;;;14.10;9.70;;;;;;;1.23;100.00;99648.50;5015071;28;20033;-70
2023/11/29 05:04:09;;;;;;;15.23;9.88;;;;;;;1.22;100.00;99651.47;5024937;28;20505;-70
2023/11/29 05:06:34;;;;;;;12.85;9.63;;;;;;;1.21;100.00;99653.38;5044880;28;20509;-70
2023/11/29 05:09:00;;;;;;;16.40;9.82;;;;;;;1.22;100.00;99652.28;5025199;28;20033;-70
2023/11/29 05:11:25;;;;;;;15.07;10.18;;;;;;;1.19;100.00;99650.06;5001743;28;20033;-70
2023/11/29 05:13:51;;;;;;;13.73;9.65;;;;;;;1.23;100.00;99653.16;4998394;28;20022;-70
2023/11/29 05:16:16;;;;;;;13.60;9.63;;;;;;;1.20;100.00;99648.16;5001533;28;20524;-70
2023/11/29 05:18:42;;;;;;;13.30;9.93;;;;;;;1.20;100.00;99648.16;5018560;28;20045;-70
2023/11/29 05:21:07;;;;;;;14.18;9.43;;;;;;;1.21;100.00;99644.34;5018206;28;20474;-71
2023/11/29 05:23:33;;;;;;;13.10;8.85;;;;;;;1.22;100.00;99637.78;4982453;28;20026;-71
2023/11/29 05:25:58;;;;;;;12.10;8.68;;;;;;;1.21;100.00;99639.72;4999182;28;20021;-70
2023/11/29 05:28:24;;;;;;;15.05;9.10;;;;;;;1.21;100.00;99633.41;5033089;28;20030;-71
2023/11/29 05:30:52;;;;;;;13.70;8.82;;;;;;;1.22;100.00;99632.31;5018244;28;20025;-71
2023/11/29 05:33:18;;;;;;;12.18;8.68;;;;;;;1.20;100.00;99631.75;4998786;28;20030;-71
2023/11/29 05:35:44;;;;;;;12.40;9.18;;;;;;;1.20;100.00;99626.28;5031929;28;20057;-71
2023/11/29 05:38:10;;;;;;;15.55;8.48;;;;;;;1.20;100.00;99629.84;5018331;28;20454;-71
2023/11/29 05:40:36;;;;;;;10.35;8.32;;;;;;;1.18;100.00;99625.72;5001828;28;20030;-71
2023/11/29 05:43:02;;;;;;;14.00;9.00;;;;;;;1.17;100.00;99621.31;4998549;28;20034;-71
2023/11/29 05:45:27;;;;;;;13.00;9.30;;;;;;;1.16;100.00;99619.66;5015746;28;20060;-71
2023/11/29 05:47:53;;;;;;;13.50;9.70;;;;;;;1.13;100.00;99620.19;5012963;28;20033;-71
2023/11/29 05:50:18;;;;;;;15.07;10.30;;;;;;;1.10;100.00;99627.81;5037960;28;20558;-71
2023/11/29 05:52:43;;;;;;;15.98;11.43;;;;;;;1.08;100.00;99621.75;5021707;28;20029;-71
2023/11/29 05:55:09;;;;;;;20.58;12.30;;;;;;;1.07;100.00;99628.31;5033845;28;20367;-71
2023/11/29 05:57:35;;;;;;;17.45;11.88;;;;;;;1.06;100.00;99629.41;5028879;28;20035;-71
2023/11/29 06:00:08;;;;;;;17.88;12.35;;;;;;;1.04;100.00;99628.81;5037778;28;20109;-71
2023/11/29 06:02:35;;;;;;;19.77;13.13;;;;;;;1.00;100.00;99633.13;5039240;28;20025;-71
2023/11/29 06:05:00;;;;;;;18.08;12.88;;;;;;;0.98;100.00;99629.84;4991953;28;20395;-71
2023/11/29 06:07:25;;;;;;;18.63;12.00;;;;;;;0.96;100.00;99625.69;5037918;28;20230;-71
2023/11/29 06:09:51;;;;;;;18.45;12.27;;;;;;;0.93;100.00;99627.03;5021217;28;20044;-71
2023/11/29 06:12:16;;;;;;;18.08;12.63;;;;;;;0.88;100.00;99630.50;5001324;28;20034;-71
2023/11/29 06:14:43;;;;;;;18.00;12.52;;;;;;;0.85;100.00;99627.47;5018204;28;20084;-71
2023/11/29 06:17:08;;;;;;;16.52;11.90;;;;;;;0.84;100.00;99617.63;5018824;28;20050;-71
2023/11/29 06:19:34;;;;;;;18.08;11.57;;;;;;;0.81;100.00;99613.47;5037374;28;20037;-71
2023/11/29 06:21:59;;;;;;;19.00;11.52;;;;;;;0.77;100.00;99627.88;5037573;28;20017;-71
2023/11/29 06:24:25;;;;;;;17.52;11.30;;;;;;;0.76;100.00;99621.59;5020935;28;20033;-71
2023/11/29 06:26:50;;;;;;;15.82;11.23;;;;;;;0.80;100.00;99622.72;5020949;28;20056;-71
2023/11/29 06:29:16;;;;;;;14.98;10.73;;;;;;;0.77;100.00;99619.69;5032543;28;20056;-71
2023/11/29 06:31:42;;;;;;;16.10;10.55;;;;;;;0.75;100.00;99613.63;5015346;28;20035;-71
2023/11/29 06:34:07;;;;;;;15.25;10.38;;;;;;;0.74;100.00;99612.81;5021692;28;20034;-71
2023/11/29 06:36:34;;;;;;;14.30;10.15;;;;;;;0.77;100.00;99606.03;5017501;28;20045;-71
2023/11/29 06:39:00;;;;;;;15.40;9.88;;;;;;;0.74;100.00;99612.00;5018759;28;20041;-71
2023/11/29 06:41:25;;;;;;;18.25;10.40;;;;;;;0.75;100.00;99599.97;5020834;28;20083;-71
2023/11/29 06:43:52;;;;;;;18.85;11.02;;;;;;;0.78;100.00;99600.31;5003971;28;20083;-71
2023/11/29 06:46:17;;;;;;;18.67;11.20;;;;;;;0.77;100.00;99606.03;5037264;28;20536;-71
2023/11/29 06:48:43;;;;;;;20.75;10.93;;;;;;;0.82;100.00;99603.38;5050355;28;20033;-71
2023/11/29 06:51:08;;;;;;;19.20;11.02;;;;;;;0.81;100.00;99601.72;5020871;28;20029;-71
2023/11/29 06:53:35;;;;;;;19.08;10.68;;;;;;;0.84;100.00;99595.75;5037002;28;20378;-71
2023/11/29 06:56:01;;;;;;;20.00;11.27;;;;;;;0.84;100.00;99596.56;5001142;28;20029;-71
2023/11/29 06:58:27;;;;;;;18.77;10.98;;;;;;;0.83;100.00;99594.88;5025776;28;20018;-71
2023/11/29 07:00:53;;;;;;;19.73;11.15;;;;;;;0.84;100.00;99588.38;5036921;28;20029;-71
2023/11/29 07:03:18;;;;;;;19.30;11.15;;;;;;;0.85;100.00;99586.44;5017182;28;20045;-71
2023/11/29 07:05:45;;;;;;;19.23;11.40;;;;;;;0.87;100.00;99581.56;5026748;28;20375;-71
2023/11/29 07:08:10;;;;;;;17.90;11.15;;;;;;;0.89;100.00;99576.66;5020425;28;20037;-71
2023/11/29 07:10:36;;;;;;;22.85;11.48;;;;;;;0.89;100.00;99571.19;5020072;28;20029;-71
2023/11/29 07:13:02;;;;;;;18.27;11.02;;;;;;;0.89;100.00;99571.19;5036087;28;20041;-71
2023/11/29 07:15:27;;;;;;;18.02;10.75;;;;;;;0.90;100.00;99567.38;5003681;28;20022;-71
2023/11/29 07:17:56;;;;;;;16.50;9.95;;;;;;;0.88;100.00;99570.38;4999852;28;20041;-71
2023/11/29 07:20:21;;;;;;;17.98;11.18;;;;;;;0.89;100.00;99568.44;5027341;28;20026;-71
2023/11/29 07:22:46;;;;;;;16.60;10.32;;;;;;;0.89;100.00;99566.56;5036449;28;20029;-71
2023/11/29 07:25:12;;;;;;;18.50;11.13;;;;;;;0.89;100.00;99569.31;5003477;28;20103;-71
2023/11/29 07:27:39;;;;;;;16.98;9.82;;;;;;;0.91;100.00;99568.22;5034715;28;20033;-71
2023/11/29 07:30:06;;;;;;;15.45;10.30;;;;;;;0.89;100.00;99577.50;5037716;28;20473;-71
2023/11/29 07:32:31;;;;;;;17.05;10.23;;;;;;;0.91;100.00;99571.75;4991737;28;20033;-71
2023/11/29 07:34:56;;;;;;;16.58;10.77;;;;;;;0.92;100.00;99565.25;5003383;28;20371;-71
2023/11/29 07:37:22;;;;;;;18.23;11.38;;;;;;;0.92;100.00;99570.72;5036155;28;20087;-71
2023/11/29 07:39:47;;;;;;;18.77;10.27;;;;;;;0.95;100.00;99578.41;5000007;28;20034;-71
2023/11/29 07:42:16;;;;;;;22.35;11.05;;;;;;;0.94;100.00;99563.06;5032522;28;20029;-71
2023/11/29 07:44:43;;;;;;;17.27;10.30;;;;;;;0.97;100.00;99578.94;5027673;28;20028;-71
2023/11/29 07:47:08;;;;;;;16.23;11.05;;;;;;;0.96;100.00;99585.50;5035936;28;20030;-71
2023/11/29 07:49:33;;;;;;;20.25;10.85;;;;;;;0.99;100.00;99578.72;5019355;28;20021;-71
2023/11/29 07:51:59;;;;;;;18.45;11.35;;;;;;;1.01;100.00;99574.63;5002882;28;20029;-71
2023/11/29 07:54:24;;;;;;;18.02;11.18;;;;;;;1.01;100.00;99582.84;5019358;28;20035;-71
2023/11/29 07:56:50;;;;;;;15.80;10.93;;;;;;;1.06;100.00;99573.88;5035693;28;20029;-71
2023/11/29 07:59:16;;;;;;;18.05;11.48;;;;;;;1.05;100.00;99575.78;5047731;28;20111;-71
2023/11/29 08:01:41;;;;;;;19.33;10.85;;;;;;;1.11;100.00;99557.53;5042022;28;20048;-71
2023/11/29 08:04:07;;;;;;;19.00;12.02;;;;;;;1.10;100.00;99562.16;5000952;28;20030;-71
2023/11/29 08:06:33;;;;;;;20.30;11.80;;;;;;;1.11;100.00;99563.00;5051912;28;20112;-71
2023/11/29 08:08:58;;;;;;;19.42;11.40;;;;;;;1.10;100.00;99564.09;5029001;28;20047;-71
2023/11/29 08:11:23;;;;;;;18.70;11.93;;;;;;;1.13;100.00;99557.28;5018558;28;20470;-71
2023/11/29 08:13:49;;;;;;;17.70;11.57;;;;;;;1.20;100.00;99561.47;5019052;28;20032;-71
2023/11/29 08:16:15;;;;;;;16.10;11.20;;;;;;;1.19;100.00;99564.44;5038193;28;20057;-71
2023/11/29 08:18:40;;;;;;;17.58;10.77;;;;;;;1.23;100.00;99560.16;5007141;28;20033;-71
2023/11/29 08:21:06;;;;;;;19.17;10.70;;;;;;;1.25;100.00;99564.25;4999438;28;20025;-71
2023/11/29 08:23:31;;;;;;;18.02;11.15;;;;;;;1.27;100.00;99567.56;5018864;28;20025;-71
2023/11/29 08:25:57;;;;;;;15.75;10.82;;;;;;;1.29;100.00;99564.59;4991374;28;20029;-71
2023/11/29 08:28:23;;;;;;;18.30;11.50;;;;;;;1.33;100.00;99571.19;5017577;28;20037;-71
2023/11/29 08:30:48;;;;;;;16.83;11.10;;;;;;;1.37;100.00;99560.56;5018672;28;20102;-71
2023/11/29 08:33:14;;;;;;;15.93;11.18;;;;;;;1.39;100.00;99555.66;4999069;28;20037;-71
2023/11/29 08:35:40;;;;;;;16.33;11.38;;;;;;;1.44;100.00;99567.47;4998969;28;20403;-71
2023/11/29 08:38:06;;;;;;;14.82;10.75;;;;;;;1.50;100.00;99571.91;5015301;28;20037;-71
2023/11/29 08:40:32;;;;;;;14.25;10.25;;;;;;;1.54;100.00;99578.53;5015554;28;20025;-71
2023/11/29 08:42:57;;;;;;;14.52;10.40;;;;;;;1.58;100.00;99578.03;5018419;28;20037;-71
2023/11/29 08:45:22;;;;;;;16.35;10.07;;;;;;;1.63;100.00;99581.63;5018885;28;20029;-71
2023/11/29 08:47:48;;;;;;;18.08;11.02;;;;;;;1.69;100.00;99577.03;5018524;28;20034;-71
2023/11/29 08:50:13;;;;;;;15.13;10.30;;;;;;;1.74;100.00;99579.84;5002325;28;20032;-71
2023/11/29 08:52:42;;;;;;;15.75;10.63;;;;;;;1.79;100.00;99577.16;5018610;28;20041;-71
2023/11/29 08:55:08;;;;;;;17.20;10.73;;;;;;;1.88;100.00;99588.47;5034105;28;20602;-71
2023/11/29 08:57:34;;;;;;;19.65;10.98;;;;;;;1.95;100.00;99578.94;5009453;28;20030;-71
2023/11/29 08:59:59;;;;;;;17.35;10.88;;;;;;;2.03;100.00;99574.06;5002244;28;20036;-71
2023/11/29 09:02:27;;;;;;;15.68;10.68;;;;;;;2.11;100.00;99576.34;5018548;28;20036;-71
2023/11/29 09:04:52;;;;;;;18.05;10.98;;;;;;;2.18;100.00;99571.47;5023887;28;20034;-71
2023/11/29 09:07:18;;;;;;;15.30;10.57;;;;;;;2.26;100.00;99568.25;4993023;28;20022;-71
2023/11/29 09:09:44;;;;;;;15.40;10.32;;;;;;;2.33;100.00;99557.06;5001223;28;20607;-71
2023/11/29 09:12:11;;;;;;;15.80;11.05;;;;;;;2.40;100.00;99553.00;5018231;28;20037;-71
2023/11/29 09:14:37;;;;;;;14.52;10.32;;;;;;;2.50;100.00;99543.19;5001461;28;20099;-72
2023/11/29 09:17:03;;;;;;;16.85;9.95;;;;;;;2.57;100.00;99538.31;5018030;28;20468;-72
2023/11/29 09:19:29;;;;;;;17.73;11.75;;;;;;;2.64;100.00;99531.47;5001729;28;20049;-72
2023/11/29 09:21:54;;;;;;;15.82;10.75;;;;;;;2.72;100.00;99527.41;5038470;28;20049;-72
2023/11/29 09:24:21;;;;;;;18.23;12.02;;;;;;;2.82;100.00;99526.66;5005649;28;20428;-72
2023/11/29 09:26:46;;;;;;;14.57;10.48;;;;;;;2.90;100.00;99524.22;5019183;28;20030;-72
2023/11/29 09:29:12;;;;;;;16.20;11.45;;;;;;;2.99;100.00;99515.50;5036545;28;20103;-72
2023/11/29 09:31:39;;;;;;;14.85;11.18;;;;;;;3.06;100.00;99513.31;5038529;28;20382;-71
2023/11/29 09:34:05;;;;;;;27.77;11.80;;;;;;;3.35;100.00;99505.44;5038643;28;20030;-73
2023/11/29 09:36:30;;;;;;;28.30;12.50;;;;;;;3.34;100.00;99510.13;5038526;28;20547;-72
2023/11/29 09:38:55;;;;;;;20.95;10.88;;;;;;;3.41;100.00;99509.03;5038317;28;20064;-72
2023/11/29 09:41:21;;;;;;;19.40;11.75;;;;;;;3.50;100.00;99504.66;5022254;28;20057;-72
2023/11/29 09:43:47;;;;;;;28.05;12.15;;;;;;;3.58;100.00;99512.34;5005077;28;20030;-72
2023/11/29 09:46:12;;;;;;;24.60;12.98;;;;;;;3.67;100.00;99505.22;4985927;28;20038;-72
2023/11/29 09:48:38;;;;;;;20.88;12.05;;;;;;;3.73;100.00;99506.88;5019640;28;20381;-72
2023/11/29 09:51:03;;;;;;;24.05;13.63;;;;;;;3.83;100.00;99506.06;4985967;28;20053;-72
2023/11/29 09:53:30;;;;;;;19.73;10.95;;;;;;;3.91;100.00;99499.19;5048272;28;20363;-72
2023/11/29 09:55:55;;;;;;;20.23;12.27;;;;;;;4.01;100.00;99496.44;5002326;28;20574;-72
2023/11/29 09:58:21;;;;;;;20.23;15.18;;;;;;;4.11;100.00;99493.69;5035602;28;20099;-71
2023/11/29 10:00:46;;;;;;;26.83;17.08;;;;;;;4.22;100.00;99500.81;5037883;28;20021;-74
2023/11/29 10:03:13;;;;;;;19.52;14.23;;;;;;;4.31;100.00;99503.81;5035665;28;20032;-72
2023/11/29 10:05:44;;;;;;;20.17;13.15;;;;;;;4.44;100.00;99506.00;5027029;28;20095;-72
2023/11/29 10:08:09;;;;;;;21.73;13.27;;;;;;;4.56;100.00;99505.69;5041172;28;20060;-72
2023/11/29 10:10:35;;;;;;;21.08;14.23;;;;;;;4.68;100.00;99508.97;5021178;28;20029;-72
2023/11/29 10:13:01;;;;;;;20.88;14.27;;;;;;;4.78;100.00;99507.28;5037295;28;20095;-72
2023/11/29 10:15:26;;;;;;;23.15;15.07;;;;;;;4.89;100.00;99508.91;5038043;28;20022;-72
2023/11/29 10:17:52;;;;;;;17.92;13.23;;;;;;;4.99;100.00;99508.88;5017381;28;20061;-72
2023/11/29 10:20:17;;;;;;;21.15;13.27;;;;;;;5.11;100.00;99498.34;5017798;28;20060;-72
2023/11/29 10:22:56;;;;;;;24.52;14.75;;;;;;;5.21;100.00;99503.00;5024122;28;20022;-72
2023/11/29 10:25:23;;;;;;;23.58;13.48;;;;;;;5.30;100.00;99503.22;5005866;28;20037;-72
2023/11/29 10:27:49;;;;;;;20.42;13.93;;;;;;;5.38;100.00;99505.38;5019614;28;20124;-72
2023/11/29 10:30:15;;;;;;;20.40;13.32;;;;;;;5.48;100.00;99505.28;5034067;28;20037;-72
2023/11/29 10:32:44;;;;;;;19.73;12.88;;;;;;;5.55;100.00;99493.97;5049134;28;20033;-72
2023/11/29 10:35:13;;;;;;;18.10;13.27;;;;;;;5.59;100.00;99490.34;5038881;28;20029;-72
2023/11/29 10:38:18;;;;;;;18.15;13.07;;;;;;;5.68;100.00;99504.34;5037197;28;20033;-72
2023/11/29 10:40:43;;;;;;;15.73;11.88;;;;;;;5.75;100.00;99512.31;5035295;28;20045;-72
2023/11/29 10:43:10;;;;;;;21.05;12.90;;;;;;;5.82;100.00;99497.09;5004139;28;20033;-72
2023/11/29 10:45:36;;;;;;;18.27;12.45;;;;;;;5.83;100.00;99489.66;5020882;28;20091;-72
2023/11/29 10:48:14;;;;;;;18.25;12.40;;;;;;;5.94;100.00;99485.72;5004304;28;20029;-71
2023/11/29 10:50:40;;;;;;;22.52;12.75;;;;;;;6.00;100.00;99481.00;5022432;28;20041;-72
2023/11/29 10:53:06;;;;;;;17.60;12.90;;;;;;;6.04;100.00;99474.63;5002026;28;20061;-72
2023/11/29 10:55:35;;;;;;;17.58;12.00;;;;;;;6.10;100.00;99469.88;5037160;28;20573;-72
2023/11/29 10:58:15;;;;;;;15.07;11.60;;;;;;;6.18;100.00;99469.22;5004988;28;20056;-72
2023/11/29 11:00:44;;;;;;;15.05;11.75;;;;;;;6.19;100.00;99461.81;5036776;28;20099;-72
2023/11/29 11:03:30;;;;;;;16.17;11.23;;;;;;;6.25;100.00;99461.47;5018723;28;20075;-72
2023/11/29 11:06:21;;;;;;;16.92;11.38;;;;;;;6.28;100.00;99454.53;5014281;28;20025;-72
2023/11/29 11:08:47;;;;;;;17.10;12.23;;;;;;;6.29;100.00;99455.34;5026254;28;20029;-72
2023/11/29 11:11:44;;;;;;;20.08;11.15;;;;;;;6.32;100.00;99447.31;5019898;28;20044;-72